createdAt,value
2019-02-21T00:02:17.115Z,99.90
2019-02-21T00:04:48.997Z,99.90
2019-02-21T00:07:21.888Z,99.90
2019-02-21T00:09:53.849Z,99.90
2019-02-21T00:12:26.062Z,99.90
2019-02-21T00:14:57.563Z,99.90
2019-02-21T00:17:29.302Z,99.90
2019-02-21T00:20:01.172Z,99.90
2019-02-21T00:22:33.046Z,99.90
2019-02-21T00:25:04.933Z,99.90
2019-02-21T00:27:36.764Z,99.90
2019-02-21T00:30:08.610Z,99.90
2019-02-21T00:32:40.510Z,99.90
2019-02-21T00:35:12.339Z,99.90
2019-02-21T00:37:44.148Z,99.90
2019-02-21T00:40:16.034Z,99.90
2019-02-21T00:42:47.970Z,99.90
2019-02-21T00:45:19.946Z,99.90
2019-02-21T00:47:51.903Z,99.90
2019-02-21T00:50:23.799Z,99.90
2019-02-21T00:52:55.679Z,99.90
2019-02-21T00:55:27.978Z,99.90
2019-02-21T00:58:01.114Z,99.90
2019-02-21T01:00:32.996Z,99.90
2019-02-21T01:03:05.135Z,99.90
2019-02-21T01:05:37.017Z,99.90
2019-02-21T01:08:09.238Z,99.90
2019-02-21T01:10:41.158Z,99.90
2019-02-21T01:13:14.514Z,99.90
2019-02-21T01:15:46.450Z,99.90
2019-02-21T01:18:24.649Z,99.90
2019-02-21T01:20:56.466Z,99.90
2019-02-21T01:23:30.204Z,99.90
2019-02-21T01:26:02.010Z,99.90
2019-02-21T01:28:33.909Z,99.90
2019-02-21T01:31:05.922Z,99.90
2019-02-21T01:33:37.814Z,99.90
2019-02-21T01:36:09.710Z,99.90
2019-02-21T01:38:41.680Z,99.90
2019-02-21T01:41:15.107Z,99.90
2019-02-21T01:43:47.026Z,99.90
2019-02-21T01:46:18.910Z,99.90
2019-02-21T01:48:50.692Z,99.90
2019-02-21T01:51:22.614Z,99.90
2019-02-21T01:53:54.531Z,99.90
2019-02-21T01:56:26.402Z,99.90
2019-02-21T01:58:58.306Z,99.90
2019-02-21T02:01:30.167Z,99.90
2019-02-21T02:04:02.060Z,99.90
2019-02-21T02:06:33.976Z,99.90
2019-02-21T02:09:11.467Z,99.90
2019-02-21T02:11:43.341Z,99.90
2019-02-21T02:14:15.292Z,99.90
2019-02-21T02:16:49.730Z,99.90
2019-02-21T02:19:21.652Z,99.90
2019-02-21T02:21:53.591Z,99.90
2019-02-21T02:24:25.390Z,99.90
2019-02-21T02:26:57.311Z,99.90
2019-02-21T02:29:29.153Z,99.90
2019-02-21T02:32:01.028Z,99.90
2019-02-21T02:34:32.938Z,99.90
2019-02-21T02:37:04.875Z,99.90
2019-02-21T02:39:36.807Z,99.90
2019-02-21T02:42:10.231Z,99.90
2019-02-21T02:44:42.116Z,99.90
2019-02-21T02:47:14.037Z,99.90
2019-02-21T02:49:45.966Z,99.90
2019-02-21T02:52:17.809Z,99.90
2019-02-21T02:54:49.624Z,99.90
2019-02-21T02:57:21.606Z,99.90
2019-02-21T02:59:53.465Z,99.90
2019-02-21T03:02:25.312Z,99.90
2019-02-21T03:04:57.100Z,99.90
2019-02-21T03:07:30.010Z,99.90
2019-02-21T03:10:01.954Z,99.90
2019-02-21T03:12:35.081Z,99.90
2019-02-21T03:15:25.076Z,99.90
2019-02-21T03:17:56.846Z,99.90
2019-02-21T03:20:28.879Z,99.90
2019-02-21T03:23:00.748Z,99.90
2019-02-21T03:25:36.166Z,99.90
2019-02-21T03:28:08.039Z,99.90
2019-02-21T03:30:39.911Z,99.90
2019-02-21T03:33:18.089Z,99.90
2019-02-21T03:35:49.942Z,99.90
2019-02-21T03:38:21.809Z,99.90
2019-02-21T03:40:53.701Z,99.90
2019-02-21T03:43:25.613Z,99.90
2019-02-21T03:45:57.522Z,99.90
2019-02-21T03:48:29.399Z,99.90
2019-02-21T03:51:02.588Z,99.90
2019-02-21T03:53:36.068Z,99.90
2019-02-21T03:56:08.088Z,99.90
2019-02-21T03:58:40.047Z,99.90
2019-02-21T04:01:12.035Z,99.90
2019-02-21T04:03:43.910Z,99.90
2019-02-21T04:06:15.705Z,99.90
2019-02-21T04:08:47.617Z,99.90
2019-02-21T04:11:19.588Z,99.90
2019-02-21T04:13:51.587Z,99.90
2019-02-21T04:16:23.492Z,99.90
2019-02-21T04:18:55.363Z,99.90
2019-02-21T04:21:27.283Z,99.90
2019-02-21T04:23:59.220Z,99.90
2019-02-21T04:26:31.031Z,99.90
2019-02-21T04:29:02.946Z,99.90
2019-02-21T04:31:34.842Z,99.90
2019-02-21T04:34:06.724Z,99.90
2019-02-21T04:36:38.649Z,99.90
2019-02-21T04:39:10.575Z,99.90
2019-02-21T04:41:42.484Z,99.90
2019-02-21T04:44:14.356Z,99.90
2019-02-21T04:46:46.224Z,99.90
2019-02-21T04:49:18.089Z,99.90
2019-02-21T04:51:50.010Z,99.90
2019-02-21T04:54:21.937Z,99.90
2019-02-21T04:56:53.843Z,99.90
2019-02-21T04:59:25.831Z,99.90
2019-02-21T05:01:57.754Z,99.90
2019-02-21T05:04:29.567Z,99.90
2019-02-21T05:07:02.718Z,99.90
2019-02-21T05:09:35.724Z,99.90
2019-02-21T05:12:22.938Z,99.90
2019-02-21T05:14:55.029Z,99.90
2019-02-21T05:17:33.824Z,99.90
2019-02-21T05:20:10.659Z,99.90
2019-02-21T05:22:45.527Z,99.90
2019-02-21T05:25:19.797Z,99.90
2019-02-21T05:28:16.393Z,99.90
2019-02-21T05:30:50.126Z,99.90
2019-02-21T05:33:39.796Z,99.90
2019-02-21T05:36:42.545Z,99.90
2019-02-21T05:39:33.251Z,99.90
2019-02-21T05:42:37.519Z,99.90
2019-02-21T05:45:28.266Z,99.90
2019-02-21T05:48:29.429Z,99.90
2019-02-21T05:51:20.066Z,99.90
2019-02-21T05:57:10.378Z,99.90
2019-02-21T06:00:01.075Z,99.90
2019-02-21T06:03:10.523Z,99.90
2019-02-21T06:05:52.049Z,99.90
2019-02-21T06:08:44.165Z,99.90
2019-02-21T06:11:29.544Z,99.90
2019-02-21T06:14:35.259Z,99.90
2019-02-21T06:17:38.352Z,99.90
2019-02-21T06:20:33.762Z,99.90
2019-02-21T06:23:16.389Z,99.90
2019-02-21T06:26:10.530Z,99.90
2019-02-21T06:29:02.954Z,99.90
2019-02-21T06:31:35.079Z,99.90
2019-02-21T06:34:07.493Z,99.90
2019-02-21T06:36:40.053Z,99.90
2019-02-21T06:39:12.144Z,99.90
2019-02-21T06:41:44.474Z,99.90
2019-02-21T06:44:19.027Z,99.90
2019-02-21T06:46:53.414Z,99.90
2019-02-21T06:49:32.464Z,99.90
2019-02-21T06:52:01.311Z,99.90
2019-02-21T06:54:33.691Z,99.90
2019-02-21T06:57:05.724Z,99.90
2019-02-21T06:59:42.523Z,99.90
2019-02-21T07:02:13.624Z,99.90
2019-02-21T07:04:45.934Z,99.90
2019-02-21T07:07:17.863Z,99.90
2019-02-21T07:09:53.376Z,99.90
2019-02-21T07:12:25.642Z,99.90
2019-02-21T07:14:58.061Z,99.90
2019-02-21T07:17:30.244Z,99.90
2019-02-21T07:20:03.748Z,99.90
2019-02-21T07:22:37.606Z,99.90
2019-02-21T07:25:24.300Z,99.90
2019-02-21T07:27:59.179Z,99.90
2019-02-21T07:30:32.642Z,99.90
2019-02-21T07:33:07.440Z,99.90
2019-02-21T07:35:41.574Z,99.90
2019-02-21T07:38:17.189Z,99.90
2019-02-21T07:40:49.586Z,99.90
2019-02-21T07:43:24.709Z,99.90
2019-02-21T07:45:58.417Z,99.90
2019-02-21T07:48:30.690Z,99.90
2019-02-21T07:51:02.761Z,99.90
2019-02-21T07:53:35.975Z,99.90
2019-02-21T07:56:09.112Z,99.90
2019-02-21T07:58:41.511Z,99.90
2019-02-21T08:01:13.691Z,99.90
2019-02-21T08:03:48.509Z,99.90
2019-02-21T08:06:20.398Z,99.90
2019-02-21T08:08:52.585Z,99.90
2019-02-21T08:11:24.718Z,99.90
2019-02-21T08:13:57.381Z,99.90
2019-02-21T08:16:30.410Z,99.90
2019-02-21T08:19:02.558Z,99.90
2019-02-21T08:21:35.113Z,99.90
2019-02-21T08:24:08.625Z,99.90
2019-02-21T08:26:42.594Z,99.90
2019-02-21T08:29:14.790Z,99.90
2019-02-21T08:31:47.243Z,99.90
2019-02-21T08:34:27.560Z,99.90
2019-02-21T08:37:00.757Z,99.90
2019-02-21T08:39:33.332Z,99.90
2019-02-21T08:42:06.254Z,99.90
2019-02-21T08:44:39.339Z,99.90
2019-02-21T08:47:11.579Z,99.90
2019-02-21T08:49:43.607Z,99.90
2019-02-21T08:52:16.151Z,99.90
2019-02-21T08:54:59.588Z,99.90
2019-02-21T08:57:23.254Z,99.90
2019-02-21T08:59:57.069Z,99.90
2019-02-21T09:02:29.113Z,99.90
2019-02-21T09:05:01.586Z,99.90
2019-02-21T09:07:35.873Z,99.90
2019-02-21T09:10:09.124Z,99.90
2019-02-21T09:12:41.428Z,99.90
2019-02-21T09:15:16.071Z,99.90
2019-02-21T09:17:50.398Z,99.90
2019-02-21T09:20:22.627Z,99.90
2019-02-21T09:22:55.285Z,99.90
2019-02-21T09:25:27.531Z,99.90
2019-02-21T09:28:00.035Z,99.90
2019-02-21T09:30:32.243Z,99.90
2019-02-21T09:33:16.616Z,99.90
2019-02-21T09:35:40.668Z,99.90
2019-02-21T09:38:13.171Z,99.90
2019-02-21T09:40:45.966Z,99.90
2019-02-21T09:43:18.008Z,99.90
2019-02-21T09:45:50.660Z,99.90
2019-02-21T09:48:25.449Z,99.90
2019-02-21T09:50:58.775Z,99.90
2019-02-21T09:53:32.182Z,99.90
2019-02-21T09:56:04.399Z,99.90
2019-02-21T09:58:38.088Z,99.90
2019-02-21T10:01:10.158Z,99.90
2019-02-21T10:03:44.138Z,99.90
2019-02-21T10:06:17.927Z,99.00
2019-02-21T10:08:51.181Z,96.80
2019-02-21T10:11:24.096Z,94.40
2019-02-21T10:13:57.681Z,92.70
2019-02-21T10:16:31.123Z,90.50
2019-02-21T10:19:03.314Z,90.10
2019-02-21T10:21:35.981Z,87.70
2019-02-21T10:24:08.365Z,86.10
2019-02-21T10:26:41.306Z,84.70
2019-02-21T10:29:13.696Z,84.30
2019-02-21T10:31:45.630Z,83.70
2019-02-21T10:34:21.580Z,82.80
2019-02-21T10:36:52.569Z,81.70
2019-02-21T10:39:26.364Z,80.40
2019-02-21T10:41:59.832Z,78.30
2019-02-21T10:44:32.198Z,78.90
2019-02-21T10:47:04.212Z,78.30
2019-02-21T10:49:37.355Z,77.50
2019-02-21T10:52:09.924Z,76.40
2019-02-21T10:54:43.876Z,74.40
2019-02-21T10:57:18.861Z,74.70
2019-02-21T10:59:52.874Z,75.40
2019-02-21T11:02:25.139Z,75.70
2019-02-21T11:04:57.148Z,75.80
2019-02-21T11:07:30.313Z,74.80
2019-02-21T11:10:02.866Z,75.00
2019-02-21T11:12:35.066Z,73.70
2019-02-21T11:15:10.305Z,74.30
2019-02-21T11:17:42.467Z,74.10
2019-02-21T11:20:17.142Z,74.20
2019-02-21T11:22:49.269Z,73.90
2019-02-21T11:25:22.981Z,73.30
2019-02-21T11:27:55.332Z,74.40
2019-02-21T11:30:27.251Z,73.30
2019-02-21T11:32:59.605Z,71.90
2019-02-21T11:35:33.352Z,72.00
2019-02-21T11:38:08.170Z,72.60
2019-02-21T11:40:40.566Z,73.50
2019-02-21T11:43:14.066Z,74.20
2019-02-21T11:45:53.822Z,73.20
2019-02-21T11:48:24.088Z,72.90
2019-02-21T11:50:56.127Z,73.40
2019-02-21T11:53:29.665Z,73.50
2019-02-21T11:56:03.015Z,74.60
2019-02-21T11:58:35.191Z,73.70
2019-02-21T12:01:10.404Z,73.60
2019-02-21T12:03:42.454Z,74.60
2019-02-21T12:06:15.836Z,75.80
2019-02-21T12:08:48.083Z,76.30
2019-02-21T12:11:20.536Z,75.10
2019-02-21T12:13:53.347Z,73.20
2019-02-21T12:16:24.820Z,71.60
2019-02-21T12:18:56.765Z,72.20
2019-02-21T12:21:37.962Z,72.60
2019-02-21T12:24:09.755Z,71.20
2019-02-21T12:26:41.703Z,72.70
2019-02-21T12:29:13.631Z,73.10
2019-02-21T12:31:45.452Z,74.30
2019-02-21T12:34:17.366Z,72.00
2019-02-21T12:36:49.274Z,73.20
2019-02-21T12:39:21.081Z,73.10
2019-02-21T12:41:52.955Z,72.50
2019-02-21T12:44:24.974Z,72.00
2019-02-21T12:46:56.858Z,73.50
2019-02-21T12:49:28.718Z,73.60
2019-02-21T12:52:00.647Z,73.70
2019-02-21T12:54:32.596Z,74.90
2019-02-21T12:57:04.466Z,76.20
2019-02-21T12:59:37.274Z,74.50
2019-02-21T13:02:09.169Z,76.00
2019-02-21T13:04:41.092Z,75.70
2019-02-21T13:07:12.903Z,75.40
2019-02-21T13:09:44.746Z,75.70
2019-02-21T13:12:17.632Z,76.20
2019-02-21T13:14:49.541Z,77.10
2019-02-21T13:17:21.438Z,76.60
2019-02-21T13:19:53.325Z,77.50
2019-02-21T13:22:26.115Z,76.90
2019-02-21T13:24:58.027Z,77.30
2019-02-21T13:27:29.886Z,75.80
2019-02-21T13:30:02.757Z,75.50
2019-02-21T13:32:34.742Z,73.80
2019-02-21T13:35:07.224Z,73.00
2019-02-21T13:37:39.156Z,72.10
2019-02-21T13:40:13.141Z,71.50
2019-02-21T13:42:45.137Z,71.40
2019-02-21T13:45:18.015Z,71.60
2019-02-21T13:47:50.172Z,71.90
2019-02-21T13:50:23.838Z,73.10
2019-02-21T13:52:55.524Z,75.00
2019-02-21T13:55:27.427Z,75.40
2019-02-21T13:57:59.360Z,76.40
2019-02-21T14:00:31.256Z,75.10
2019-02-21T14:03:03.165Z,75.20
2019-02-21T14:05:35.086Z,76.40
2019-02-21T14:08:06.975Z,76.10
2019-02-21T14:10:38.945Z,76.00
2019-02-21T14:13:11.905Z,76.70
2019-02-21T14:15:43.952Z,77.20
2019-02-21T14:18:24.964Z,77.40
2019-02-21T14:20:56.930Z,77.90
2019-02-21T14:23:28.670Z,77.90
2019-02-21T14:26:00.489Z,78.70
2019-02-21T14:28:32.414Z,78.00
2019-02-21T14:31:07.188Z,77.20
2019-02-21T14:33:37.989Z,77.00
2019-02-21T14:36:15.999Z,75.70
2019-02-21T14:38:43.485Z,76.70
2019-02-21T14:41:15.399Z,75.90
2019-02-21T14:43:47.269Z,75.40
2019-02-21T14:46:19.187Z,75.10
2019-02-21T14:48:51.106Z,75.10
2019-02-21T14:51:24.548Z,75.20
2019-02-21T14:53:56.481Z,75.60
2019-02-21T14:56:28.394Z,76.10
2019-02-21T14:59:01.253Z,76.80
2019-02-21T15:01:33.108Z,78.70
2019-02-21T15:04:04.975Z,77.90
2019-02-21T15:06:37.679Z,77.80
2019-02-21T15:09:09.578Z,78.60
2019-02-21T15:11:41.634Z,78.50
2019-02-21T15:14:13.638Z,78.70
2019-02-21T15:16:45.586Z,80.20
2019-02-21T15:19:17.519Z,79.80
2019-02-21T15:21:49.402Z,79.70
2019-02-21T15:24:21.598Z,80.60
2019-02-21T15:26:54.489Z,81.10
2019-02-21T15:29:26.312Z,82.20
2019-02-21T15:31:58.134Z,83.20
2019-02-21T15:34:30.062Z,83.80
2019-02-21T15:37:01.931Z,84.40
2019-02-21T15:39:33.718Z,85.10
2019-02-21T15:42:05.726Z,86.20
2019-02-21T15:44:37.684Z,87.10
2019-02-21T15:47:09.607Z,87.60
2019-02-21T15:49:41.622Z,88.70
2019-02-21T15:52:21.878Z,90.00
2019-02-21T15:54:46.955Z,90.60
2019-02-21T15:57:18.835Z,91.20
2019-02-21T15:59:50.708Z,91.80
2019-02-21T16:02:22.617Z,93.00
2019-02-21T16:04:54.497Z,94.00
2019-02-21T16:07:26.356Z,94.90
2019-02-21T16:09:58.220Z,95.30
2019-02-21T16:12:31.683Z,96.60
2019-02-21T16:15:04.989Z,97.70
2019-02-21T16:17:44.698Z,98.60
2019-02-21T16:20:17.755Z,99.90
2019-02-21T16:22:52.060Z,99.90
2019-02-21T16:25:23.908Z,99.90
2019-02-21T16:27:55.887Z,99.90
2019-02-21T16:30:27.910Z,99.90
2019-02-21T16:32:59.743Z,99.90
2019-02-21T16:35:31.557Z,99.90
2019-02-21T16:38:03.892Z,99.90
2019-02-21T16:40:35.812Z,99.90
2019-02-21T16:43:07.727Z,99.90
2019-02-21T16:45:46.396Z,99.90
2019-02-21T16:48:14.221Z,99.90
2019-02-21T16:50:48.389Z,99.90
2019-02-21T16:53:19.607Z,99.90
2019-02-21T16:55:51.471Z,99.90
2019-02-21T16:58:23.316Z,99.90
2019-02-21T17:00:56.840Z,99.90
2019-02-21T17:03:43.504Z,99.90
2019-02-21T17:06:15.530Z,99.90
2019-02-21T17:08:47.672Z,99.90
2019-02-21T17:11:19.634Z,99.90
2019-02-21T17:13:51.572Z,99.90
2019-02-21T17:16:23.557Z,99.90
2019-02-21T17:18:56.117Z,99.90
2019-02-21T17:21:29.482Z,99.90
2019-02-21T17:24:01.433Z,99.90
2019-02-21T17:26:33.490Z,99.90
2019-02-21T17:29:05.409Z,99.90
2019-02-21T17:31:37.391Z,99.90
2019-02-21T17:34:21.220Z,99.90
2019-02-21T17:36:53.155Z,99.90
2019-02-21T17:39:26.212Z,99.90
2019-02-21T17:41:58.143Z,99.90
2019-02-21T17:44:31.862Z,99.90
2019-02-21T17:47:03.583Z,99.90
2019-02-21T17:49:37.032Z,99.90
2019-02-21T17:52:08.928Z,99.90
2019-02-21T17:54:41.182Z,99.90
2019-02-21T17:57:31.817Z,99.90
2019-02-21T18:00:11.198Z,99.90
2019-02-21T18:02:43.648Z,99.90
2019-02-21T18:05:22.993Z,99.90
2019-02-21T18:07:58.138Z,99.90
2019-02-21T18:10:30.220Z,99.90
2019-02-21T18:13:03.200Z,99.90
2019-02-21T18:15:35.020Z,99.90
2019-02-21T18:18:08.156Z,99.90
2019-02-21T18:20:40.073Z,99.90
2019-02-21T18:23:12.550Z,99.90
2019-02-21T18:25:48.143Z,99.90
2019-02-21T18:28:20.232Z,99.90
2019-02-21T18:30:52.100Z,99.90
2019-02-21T18:33:24.035Z,99.90
2019-02-21T18:35:55.990Z,99.90
2019-02-21T18:38:27.885Z,99.90
2019-02-21T18:40:59.552Z,99.90
2019-02-21T18:43:32.042Z,99.90
2019-02-21T18:46:03.838Z,99.90
2019-02-21T18:48:35.714Z,99.90
2019-02-21T18:51:07.610Z,99.90
2019-02-21T18:53:39.548Z,99.90
2019-02-21T18:56:12.635Z,99.90
2019-02-21T18:58:44.671Z,99.90
2019-02-21T19:01:22.061Z,99.90
2019-02-21T19:03:53.921Z,99.90
2019-02-21T19:06:25.898Z,99.90
2019-02-21T19:08:57.855Z,99.90
2019-02-21T19:11:29.774Z,99.90
2019-02-21T19:14:01.627Z,99.90
2019-02-21T19:16:33.525Z,99.90
2019-02-21T19:19:05.446Z,99.90
2019-02-21T19:21:37.229Z,99.90
2019-02-21T19:24:09.057Z,99.90
2019-02-21T19:26:41.101Z,99.90
2019-02-21T19:29:30.417Z,99.90
2019-02-21T19:32:02.264Z,99.90
2019-02-21T19:34:34.131Z,99.90
2019-02-21T19:37:06.126Z,99.90
2019-02-21T19:39:38.131Z,99.90
2019-02-21T19:42:10.025Z,99.90
2019-02-21T19:44:42.127Z,99.90
2019-02-21T19:47:20.530Z,99.90
2019-02-21T19:49:52.438Z,99.90
2019-02-21T19:52:24.334Z,99.90
2019-02-21T19:54:56.422Z,99.90
2019-02-21T19:57:29.289Z,99.90
2019-02-21T20:00:01.165Z,99.90
2019-02-21T20:02:34.610Z,99.90
2019-02-21T20:05:07.580Z,99.90
2019-02-21T20:07:39.610Z,99.90
2019-02-21T20:10:11.578Z,99.90
2019-02-21T20:12:43.410Z,99.90
2019-02-21T20:15:15.281Z,99.90
2019-02-21T20:17:47.193Z,99.90
2019-02-21T20:20:19.343Z,99.90
2019-02-21T20:22:51.243Z,99.90
2019-02-21T20:25:23.183Z,99.90
2019-02-21T20:27:54.994Z,99.90
2019-02-21T20:30:26.919Z,99.90
2019-02-21T20:32:58.891Z,99.90
2019-02-21T20:35:30.730Z,99.90
2019-02-21T20:38:02.683Z,99.90
2019-02-21T20:40:34.658Z,99.90
2019-02-21T20:43:06.524Z,99.90
2019-02-21T20:45:38.328Z,99.90
2019-02-21T20:48:10.221Z,99.90
2019-02-21T20:50:42.099Z,99.90
2019-02-21T20:53:14.025Z,99.90
2019-02-21T20:55:45.876Z,99.90
2019-02-21T20:58:18.631Z,99.90
2019-02-21T21:00:50.494Z,99.90
2019-02-21T21:03:24.149Z,99.90
2019-02-21T21:05:56.054Z,99.90
2019-02-21T21:08:27.923Z,99.90
2019-02-21T21:10:59.820Z,99.90
2019-02-21T21:13:31.658Z,99.90
2019-02-21T21:16:03.478Z,99.90
2019-02-21T21:18:35.374Z,99.90
2019-02-21T21:21:07.176Z,99.90
2019-02-21T21:23:39.123Z,99.90
2019-02-21T21:26:11.237Z,99.90
2019-02-21T21:28:43.149Z,99.90
2019-02-21T21:31:15.393Z,99.90
2019-02-21T21:33:47.312Z,99.90
2019-02-21T21:36:19.233Z,99.90
2019-02-21T21:38:54.010Z,99.90
2019-02-21T21:41:24.574Z,99.90
2019-02-21T21:43:56.501Z,99.90
2019-02-21T21:46:28.313Z,99.90
2019-02-21T21:49:00.192Z,99.90
2019-02-21T21:51:33.996Z,99.90
2019-02-21T21:54:05.583Z,99.90
2019-02-21T21:56:37.516Z,99.90
2019-02-21T21:59:09.402Z,99.90
2019-02-21T22:01:42.234Z,99.90
2019-02-21T22:04:14.067Z,99.90
2019-02-21T22:06:45.913Z,99.90
2019-02-21T22:09:20.534Z,99.90
2019-02-21T22:11:52.440Z,99.90
2019-02-21T22:14:24.296Z,99.90
2019-02-21T22:16:57.268Z,99.90
2019-02-21T22:19:29.161Z,99.90
2019-02-21T22:22:00.958Z,99.90
2019-02-21T22:24:32.829Z,99.90
2019-02-21T22:27:04.740Z,99.90
2019-02-21T22:29:36.591Z,99.90
2019-02-21T22:32:08.470Z,99.90
2019-02-21T22:34:40.349Z,99.90
2019-02-21T22:37:12.160Z,99.90
2019-02-21T22:39:44.044Z,99.90
2019-02-21T22:42:15.838Z,99.90
2019-02-21T22:44:47.680Z,99.90
2019-02-21T22:47:19.555Z,99.90
2019-02-21T22:49:51.416Z,99.90
2019-02-21T22:52:23.202Z,99.90
2019-02-21T22:54:55.137Z,99.90
2019-02-21T22:57:26.886Z,99.90
2019-02-21T22:59:58.770Z,99.90
2019-02-21T23:02:32.565Z,99.90
2019-02-21T23:05:42.995Z,99.90
2019-02-21T23:08:47.383Z,99.90
2019-02-21T23:11:19.218Z,99.90
2019-02-21T23:13:51.915Z,99.90
2019-02-21T23:16:24.291Z,99.90
2019-02-21T23:18:56.182Z,99.90
2019-02-21T23:21:28.139Z,99.90
2019-02-21T23:24:00.042Z,99.90
2019-02-21T23:26:31.920Z,99.90
2019-02-21T23:29:03.873Z,99.90
2019-02-21T23:31:35.749Z,99.90
2019-02-21T23:34:10.590Z,99.90
2019-02-21T23:36:42.490Z,99.90
2019-02-21T23:39:14.324Z,99.90
2019-02-21T23:41:46.203Z,99.90
2019-02-21T23:44:17.978Z,99.90
2019-02-21T23:46:49.791Z,99.90
2019-02-21T23:49:21.571Z,99.90
2019-02-21T23:51:53.654Z,99.90
2019-02-21T23:54:25.554Z,99.90
2019-02-21T23:56:57.444Z,99.90
2019-02-21T23:59:29.774Z,99.90
